sensor_id;sensor_type;location;lat;lon;timestamp;temperature;humidity
1994;DHT22;998;49.906;10.908;2023-09-19T00:00:21;18.20;99.90
1994;DHT22;998;49.906;10.908;2023-09-19T00:02:54;18.20;99.90
1994;DHT22;998;49.906;10.908;2023-09-19T00:05:25;18.30;99.90
1994;DHT22;998;49.906;10.908;2023-09-19T00:07:54;18.30;99.90
1994;DHT22;998;49.906;10.908;2023-09-19T00:10:22;18.20;99.90
1994;DHT22;998;49.906;10.908;2023-09-19T00:12:52;18.20;99.90
1994;DHT22;998;49.906;10.908;2023-09-19T00:15:21;18.20;99.90
1994;DHT22;998;49.906;10.908;2023-09-19T00:17:48;18.20;99.90
1994;DHT22;998;49.906;10.908;2023-09-19T00:20:18;18.20;99.90
1994;DHT22;998;49.906;10.908;2023-09-19T00:22:47;18.20;99.90
1994;DHT22;998;49.906;10.908;2023-09-19T00:25:15;18.20;99.90
1994;DHT22;998;49.906;10.908;2023-09-19T00:27:42;18.20;99.90
1994;DHT22;998;49.906;10.908;2023-09-19T00:30:13;18.20;99.90
1994;DHT22;998;49.906;10.908;2023-09-19T00:32:42;18.10;99.90
1994;DHT22;998;49.906;10.908;2023-09-19T00:35:10;18.10;99.90
1994;DHT22;998;49.906;10.908;2023-09-19T00:37:38;18.10;99.90
1994;DHT22;998;49.906;10.908;2023-09-19T00:40:07;18.10;99.90
1994;DHT22;998;49.906;10.908;2023-09-19T00:42:38;18.10;99.90
1994;DHT22;998;49.906;10.908;2023-09-19T00:45:07;18.00;99.90
1994;DHT22;998;49.906;10.908;2023-09-19T00:47:39;18.10;99.90
1994;DHT22;998;49.906;10.908;2023-09-19T00:50:08;18.00;99.90
1994;DHT22;998;49.906;10.908;2023-09-19T00:52:37;18.00;99.90
1994;DHT22;998;49.906;10.908;2023-09-19T00:55:06;18.00;99.90
1994;DHT22;998;49.906;10.908;2023-09-19T00:57:34;18.00;99.90
1994;DHT22;998;49.906;10.908;2023-09-19T01:00:05;18.00;99.90
1994;DHT22;998;49.906;10.908;2023-09-19T01:02:33;18.00;99.90
1994;DHT22;998;49.906;10.908;2023-09-19T01:05:02;17.90;99.90
1994;DHT22;998;49.906;10.908;2023-09-19T01:07:32;17.90;99.90
1994;DHT22;998;49.906;10.908;2023-09-19T01:10:00;17.80;99.90
1994;DHT22;998;49.906;10.908;2023-09-19T01:12:35;17.80;99.90
1994;DHT22;998;49.906;10.908;2023-09-19T01:15:14;17.70;99.90
1994;DHT22;998;49.906;10.908;2023-09-19T01:18:08;17.70;99.90
1994;DHT22;998;49.906;10.908;2023-09-19T01:20:43;17.80;99.90
1994;DHT22;998;49.906;10.908;2023-09-19T01:23:17;17.90;99.90
1994;DHT22;998;49.906;10.908;2023-09-19T01:29:12;17.80;99.90
1994;DHT22;998;49.906;10.908;2023-09-19T01:31:47;17.90;99.90
1994;DHT22;998;49.906;10.908;2023-09-19T01:34:16;17.80;99.90
1994;DHT22;998;49.906;10.908;2023-09-19T01:36:44;17.80;99.90
1994;DHT22;998;49.906;10.908;2023-09-19T01:39:12;17.80;99.90
1994;DHT22;998;49.906;10.908;2023-09-19T01:42:01;17.80;99.90
1994;DHT22;998;49.906;10.908;2023-09-19T01:44:48;17.80;99.90
1994;DHT22;998;49.906;10.908;2023-09-19T01:47:28;17.80;99.90
1994;DHT22;998;49.906;10.908;2023-09-19T01:50:07;17.80;99.90
1994;DHT22;998;49.906;10.908;2023-09-19T01:52:42;17.70;99.90
1994;DHT22;998;49.906;10.908;2023-09-19T01:55:12;17.70;99.90
1994;DHT22;998;49.906;10.908;2023-09-19T01:57:48;17.70;99.90
1994;DHT22;998;49.906;10.908;2023-09-19T02:00:18;17.70;99.90
1994;DHT22;998;49.906;10.908;2023-09-19T02:02:49;17.70;99.90
1994;DHT22;998;49.906;10.908;2023-09-19T02:05:22;17.70;99.90
1994;DHT22;998;49.906;10.908;2023-09-19T02:07:50;17.60;99.90
1994;DHT22;998;49.906;10.908;2023-09-19T02:10:18;17.70;99.90
1994;DHT22;998;49.906;10.908;2023-09-19T02:12:46;17.70;99.90
1994;DHT22;998;49.906;10.908;2023-09-19T02:15:14;17.70;99.90
1994;DHT22;998;49.906;10.908;2023-09-19T02:17:42;17.60;99.90
1994;DHT22;998;49.906;10.908;2023-09-19T02:20:12;17.70;99.90
1994;DHT22;998;49.906;10.908;2023-09-19T02:22:39;17.70;99.90
1994;DHT22;998;49.906;10.908;2023-09-19T02:25:07;17.70;99.90
1994;DHT22;998;49.906;10.908;2023-09-19T02:27:35;17.80;99.90
1994;DHT22;998;49.906;10.908;2023-09-19T02:30:04;17.80;99.90
1994;DHT22;998;49.906;10.908;2023-09-19T02:32:32;17.70;99.90
1994;DHT22;998;49.906;10.908;2023-09-19T02:35:02;17.70;99.90
1994;DHT22;998;49.906;10.908;2023-09-19T02:37:33;17.70;99.90
1994;DHT22;998;49.906;10.908;2023-09-19T02:40:00;17.60;99.90
1994;DHT22;998;49.906;10.908;2023-09-19T02:42:45;17.60;99.90
1994;DHT22;998;49.906;10.908;2023-09-19T02:45:15;17.60;99.90
1994;DHT22;998;49.906;10.908;2023-09-19T02:47:43;17.60;99.90
1994;DHT22;998;49.906;10.908;2023-09-19T02:50:11;17.60;99.90
1994;DHT22;998;49.906;10.908;2023-09-19T02:52:41;17.60;99.90
1994;DHT22;998;49.906;10.908;2023-09-19T02:55:10;17.60;99.90
1994;DHT22;998;49.906;10.908;2023-09-19T02:57:46;17.60;99.90
1994;DHT22;998;49.906;10.908;2023-09-19T03:00:14;17.60;99.90
1994;DHT22;998;49.906;10.908;2023-09-19T03:02:42;17.60;99.90
1994;DHT22;998;49.906;10.908;2023-09-19T03:05:10;17.60;99.90
1994;DHT22;998;49.906;10.908;2023-09-19T03:07:40;17.70;99.90
1994;DHT22;998;49.906;10.908;2023-09-19T03:10:09;17.60;99.90
1994;DHT22;998;49.906;10.908;2023-09-19T03:12:36;17.50;99.90
1994;DHT22;998;49.906;10.908;2023-09-19T03:15:06;17.50;99.90
1994;DHT22;998;49.906;10.908;2023-09-19T03:17:35;17.60;99.90
1994;DHT22;998;49.906;10.908;2023-09-19T03:20:03;17.60;99.90
1994;DHT22;998;49.906;10.908;2023-09-19T03:22:34;17.60;99.90
1994;DHT22;998;49.906;10.908;2023-09-19T03:25:03;17.60;99.90
1994;DHT22;998;49.906;10.908;2023-09-19T03:27:35;17.60;99.90
1994;DHT22;998;49.906;10.908;2023-09-19T03:30:04;17.60;99.90
1994;DHT22;998;49.906;10.908;2023-09-19T03:32:34;17.60;99.90
1994;DHT22;998;49.906;10.908;2023-09-19T03:35:02;17.50;99.90
1994;DHT22;998;49.906;10.908;2023-09-19T03:37:31;17.60;99.90
1994;DHT22;998;49.906;10.908;2023-09-19T03:39:59;17.60;99.90
1994;DHT22;998;49.906;10.908;2023-09-19T03:42:32;17.60;99.90
1994;DHT22;998;49.906;10.908;2023-09-19T03:45:02;17.60;99.90
1994;DHT22;998;49.906;10.908;2023-09-19T03:47:31;17.60;99.90
1994;DHT22;998;49.906;10.908;2023-09-19T03:49:59;17.60;99.90
1994;DHT22;998;49.906;10.908;2023-09-19T03:52:26;17.60;99.90
1994;DHT22;998;49.906;10.908;2023-09-19T03:54:54;17.60;99.90
1994;DHT22;998;49.906;10.908;2023-09-19T03:57:21;17.60;99.90
1994;DHT22;998;49.906;10.908;2023-09-19T03:59:50;17.60;99.90
1994;DHT22;998;49.906;10.908;2023-09-19T04:02:19;17.60;99.90
1994;DHT22;998;49.906;10.908;2023-09-19T04:04:50;17.60;99.90
1994;DHT22;998;49.906;10.908;2023-09-19T04:07:18;17.60;99.90
1994;DHT22;998;49.906;10.908;2023-09-19T04:09:48;17.60;99.90
1994;DHT22;998;49.906;10.908;2023-09-19T04:12:16;17.60;99.90
1994;DHT22;998;49.906;10.908;2023-09-19T04:14:43;17.70;99.90
1994;DHT22;998;49.906;10.908;2023-09-19T04:17:12;17.70;99.90
1994;DHT22;998;49.906;10.908;2023-09-19T04:19:40;17.70;99.90
1994;DHT22;998;49.906;10.908;2023-09-19T04:22:08;17.70;99.90
1994;DHT22;998;49.906;10.908;2023-09-19T04:24:37;17.70;99.90
1994;DHT22;998;49.906;10.908;2023-09-19T04:27:04;17.70;99.90
1994;DHT22;998;49.906;10.908;2023-09-19T04:29:32;17.60;99.90
1994;DHT22;998;49.906;10.908;2023-09-19T04:32:00;17.70;99.90
1994;DHT22;998;49.906;10.908;2023-09-19T04:34:31;17.70;99.90
1994;DHT22;998;49.906;10.908;2023-09-19T04:37:00;17.60;99.90
1994;DHT22;998;49.906;10.908;2023-09-19T04:39:27;17.60;99.90
1994;DHT22;998;49.906;10.908;2023-09-19T04:41:55;17.60;99.90
1994;DHT22;998;49.906;10.908;2023-09-19T04:44:23;17.60;99.90
1994;DHT22;998;49.906;10.908;2023-09-19T04:46:50;17.60;99.90
1994;DHT22;998;49.906;10.908;2023-09-19T04:49:17;17.60;99.90
1994;DHT22;998;49.906;10.908;2023-09-19T04:51:46;17.60;99.90
1994;DHT22;998;49.906;10.908;2023-09-19T04:54:14;17.60;99.90
1994;DHT22;998;49.906;10.908;2023-09-19T04:56:41;17.60;99.90
1994;DHT22;998;49.906;10.908;2023-09-19T04:59:09;17.60;99.90
1994;DHT22;998;49.906;10.908;2023-09-19T05:01:37;17.60;99.90
1994;DHT22;998;49.906;10.908;2023-09-19T05:04:04;17.50;99.90
1994;DHT22;998;49.906;10.908;2023-09-19T05:06:32;17.60;99.90
1994;DHT22;998;49.906;10.908;2023-09-19T05:09:01;17.60;99.90
1994;DHT22;998;49.906;10.908;2023-09-19T05:11:31;17.60;99.90
1994;DHT22;998;49.906;10.908;2023-09-19T05:13:59;17.60;99.90
1994;DHT22;998;49.906;10.908;2023-09-19T05:16:29;17.60;99.90
1994;DHT22;998;49.906;10.908;2023-09-19T05:18:58;17.60;99.90
1994;DHT22;998;49.906;10.908;2023-09-19T05:21:26;17.60;99.90
1994;DHT22;998;49.906;10.908;2023-09-19T05:23:54;17.60;99.90
1994;DHT22;998;49.906;10.908;2023-09-19T05:26:23;17.60;99.90
1994;DHT22;998;49.906;10.908;2023-09-19T05:28:51;17.60;99.90
1994;DHT22;998;49.906;10.908;2023-09-19T05:31:18;17.50;99.90
1994;DHT22;998;49.906;10.908;2023-09-19T05:33:46;17.50;99.90
1994;DHT22;998;49.906;10.908;2023-09-19T05:36:13;17.50;99.90
1994;DHT22;998;49.906;10.908;2023-09-19T05:38:42;17.50;99.90
1994;DHT22;998;49.906;10.908;2023-09-19T05:41:10;17.50;99.90
1994;DHT22;998;49.906;10.908;2023-09-19T05:43:41;17.50;99.90
1994;DHT22;998;49.906;10.908;2023-09-19T05:46:09;17.50;99.90
1994;DHT22;998;49.906;10.908;2023-09-19T05:48:37;17.50;99.90
1994;DHT22;998;49.906;10.908;2023-09-19T05:51:05;17.40;99.90
1994;DHT22;998;49.906;10.908;2023-09-19T05:53:32;17.40;99.90
1994;DHT22;998;49.906;10.908;2023-09-19T05:56:00;17.40;99.90
1994;DHT22;998;49.906;10.908;2023-09-19T05:58:27;17.40;99.90
1994;DHT22;998;49.906;10.908;2023-09-19T06:00:56;17.40;99.90
1994;DHT22;998;49.906;10.908;2023-09-19T06:03:23;17.40;99.90
1994;DHT22;998;49.906;10.908;2023-09-19T06:05:51;17.30;99.90
1994;DHT22;998;49.906;10.908;2023-09-19T06:08:23;17.30;99.90
1994;DHT22;998;49.906;10.908;2023-09-19T06:10:51;17.30;99.90
1994;DHT22;998;49.906;10.908;2023-09-19T06:13:19;17.30;99.90
1994;DHT22;998;49.906;10.908;2023-09-19T06:15:46;17.40;99.90
1994;DHT22;998;49.906;10.908;2023-09-19T06:18:15;17.40;99.90
1994;DHT22;998;49.906;10.908;2023-09-19T06:20:46;17.40;99.90
1994;DHT22;998;49.906;10.908;2023-09-19T06:23:13;17.40;99.90
1994;DHT22;998;49.906;10.908;2023-09-19T06:25:40;17.50;99.90
1994;DHT22;998;49.906;10.908;2023-09-19T06:28:09;17.50;99.90
1994;DHT22;998;49.906;10.908;2023-09-19T06:30:38;17.50;99.90
1994;DHT22;998;49.906;10.908;2023-09-19T06:33:07;17.50;99.90
1994;DHT22;998;49.906;10.908;2023-09-19T06:35:38;17.50;99.90
1994;DHT22;998;49.906;10.908;2023-09-19T06:38:07;17.50;99.90
1994;DHT22;998;49.906;10.908;2023-09-19T06:40:35;17.50;99.90
1994;DHT22;998;49.906;10.908;2023-09-19T06:43:03;17.50;99.90
1994;DHT22;998;49.906;10.908;2023-09-19T06:45:32;17.50;99.90
1994;DHT22;998;49.906;10.908;2023-09-19T06:47:59;17.50;99.90
1994;DHT22;998;49.906;10.908;2023-09-19T06:50:29;17.60;99.90
1994;DHT22;998;49.906;10.908;2023-09-19T06:53:00;17.50;99.90
1994;DHT22;998;49.906;10.908;2023-09-19T06:55:28;17.50;99.90
1994;DHT22;998;49.906;10.908;2023-09-19T06:57:57;17.60;99.90
1994;DHT22;998;49.906;10.908;2023-09-19T07:00:25;17.60;99.90
1994;DHT22;998;49.906;10.908;2023-09-19T07:02:57;17.60;99.90
1994;DHT22;998;49.906;10.908;2023-09-19T07:05:26;17.60;99.90
1994;DHT22;998;49.906;10.908;2023-09-19T07:07:54;17.60;99.90
1994;DHT22;998;49.906;10.908;2023-09-19T07:10:25;17.60;99.90
1994;DHT22;998;49.906;10.908;2023-09-19T07:12:56;17.60;99.90
1994;DHT22;998;49.906;10.908;2023-09-19T07:15:25;17.60;99.90
1994;DHT22;998;49.906;10.908;2023-09-19T07:17:52;17.60;99.90
1994;DHT22;998;49.906;10.908;2023-09-19T07:20:20;17.70;99.90
1994;DHT22;998;49.906;10.908;2023-09-19T07:22:49;17.70;99.90
1994;DHT22;998;49.906;10.908;2023-09-19T07:25:17;17.80;99.90
1994;DHT22;998;49.906;10.908;2023-09-19T07:27:46;17.70;99.90
1994;DHT22;998;49.906;10.908;2023-09-19T07:30:14;17.70;99.90
1994;DHT22;998;49.906;10.908;2023-09-19T07:32:42;17.70;99.90
1994;DHT22;998;49.906;10.908;2023-09-19T07:35:09;17.70;99.90
1994;DHT22;998;49.906;10.908;2023-09-19T07:37:38;17.70;99.90
1994;DHT22;998;49.906;10.908;2023-09-19T07:40:06;17.70;99.90
1994;DHT22;998;49.906;10.908;2023-09-19T07:42:35;17.80;99.90
1994;DHT22;998;49.906;10.908;2023-09-19T07:45:09;17.80;99.90
1994;DHT22;998;49.906;10.908;2023-09-19T07:47:40;17.80;99.90
1994;DHT22;998;49.906;10.908;2023-09-19T07:50:08;17.80;99.90
1994;DHT22;998;49.906;10.908;2023-09-19T07:52:37;17.90;99.90
1994;DHT22;998;49.906;10.908;2023-09-19T07:55:05;17.80;99.90
1994;DHT22;998;49.906;10.908;2023-09-19T07:57:35;17.90;99.90
1994;DHT22;998;49.906;10.908;2023-09-19T08:00:04;17.90;99.90
1994;DHT22;998;49.906;10.908;2023-09-19T08:02:36;18.00;99.90
1994;DHT22;998;49.906;10.908;2023-09-19T08:05:04;18.00;99.90
1994;DHT22;998;49.906;10.908;2023-09-19T08:07:35;18.10;99.90
1994;DHT22;998;49.906;10.908;2023-09-19T08:10:03;18.10;99.90
1994;DHT22;998;49.906;10.908;2023-09-19T08:12:33;18.20;99.90
1994;DHT22;998;49.906;10.908;2023-09-19T08:15:02;18.20;99.90
1994;DHT22;998;49.906;10.908;2023-09-19T08:17:35;18.30;99.90
1994;DHT22;998;49.906;10.908;2023-09-19T08:20:03;18.30;99.90
1994;DHT22;998;49.906;10.908;2023-09-19T08:22:31;18.40;99.90
1994;DHT22;998;49.906;10.908;2023-09-19T08:24:58;18.40;99.90
1994;DHT22;998;49.906;10.908;2023-09-19T08:27:27;18.40;99.90
1994;DHT22;998;49.906;10.908;2023-09-19T08:29:55;18.40;99.90
1994;DHT22;998;49.906;10.908;2023-09-19T08:32:22;18.40;99.90
1994;DHT22;998;49.906;10.908;2023-09-19T08:34:52;18.40;99.90
1994;DHT22;998;49.906;10.908;2023-09-19T08:37:19;18.40;99.90
1994;DHT22;998;49.906;10.908;2023-09-19T08:39:47;18.50;99.90
1994;DHT22;998;49.906;10.908;2023-09-19T08:42:14;18.50;99.90
1994;DHT22;998;49.906;10.908;2023-09-19T08:44:43;18.60;99.90
1994;DHT22;998;49.906;10.908;2023-09-19T08:47:12;18.70;99.90
1994;DHT22;998;49.906;10.908;2023-09-19T08:49:51;18.60;99.90
1994;DHT22;998;49.906;10.908;2023-09-19T08:52:27;18.60;99.90
1994;DHT22;998;49.906;10.908;2023-09-19T08:54:58;18.60;99.90
1994;DHT22;998;49.906;10.908;2023-09-19T08:57:29;18.70;99.90
1994;DHT22;998;49.906;10.908;2023-09-19T08:59:57;18.60;99.90
1994;DHT22;998;49.906;10.908;2023-09-19T09:02:26;18.60;99.90
1994;DHT22;998;49.906;10.908;2023-09-19T09:04:55;18.60;99.90
1994;DHT22;998;49.906;10.908;2023-09-19T09:07:25;18.60;99.90
1994;DHT22;998;49.906;10.908;2023-09-19T09:09:54;18.70;99.90
1994;DHT22;998;49.906;10.908;2023-09-19T09:12:22;18.90;99.90
1994;DHT22;998;49.906;10.908;2023-09-19T09:14:49;18.90;99.90
1994;DHT22;998;49.906;10.908;2023-09-19T09:17:18;18.90;99.90
1994;DHT22;998;49.906;10.908;2023-09-19T09:19:46;18.90;99.90
1994;DHT22;998;49.906;10.908;2023-09-19T09:22:14;18.90;99.90
1994;DHT22;998;49.906;10.908;2023-09-19T09:24:53;18.90;99.90
1994;DHT22;998;49.906;10.908;2023-09-19T09:27:25;18.90;99.90
1994;DHT22;998;49.906;10.908;2023-09-19T09:29:54;19.00;99.90
1994;DHT22;998;49.906;10.908;2023-09-19T09:32:23;18.90;99.90
1994;DHT22;998;49.906;10.908;2023-09-19T09:34:52;18.90;99.90
1994;DHT22;998;49.906;10.908;2023-09-19T09:37:20;18.80;99.90
1994;DHT22;998;49.906;10.908;2023-09-19T09:39:52;18.70;99.90
1994;DHT22;998;49.906;10.908;2023-09-19T09:42:32;18.60;99.90
1994;DHT22;998;49.906;10.908;2023-09-19T09:45:14;18.60;99.90
1994;DHT22;998;49.906;10.908;2023-09-19T09:47:43;18.60;99.90
1994;DHT22;998;49.906;10.908;2023-09-19T09:50:27;18.60;99.90
1994;DHT22;998;49.906;10.908;2023-09-19T09:53:19;18.60;99.90
1994;DHT22;998;49.906;10.908;2023-09-19T09:56:02;18.70;99.90
1994;DHT22;998;49.906;10.908;2023-09-19T09:58:32;18.70;99.90
1994;DHT22;998;49.906;10.908;2023-09-19T10:01:00;18.60;99.90
1994;DHT22;998;49.906;10.908;2023-09-19T10:03:35;18.60;99.90
1994;DHT22;998;49.906;10.908;2023-09-19T10:06:07;18.60;99.90
1994;DHT22;998;49.906;10.908;2023-09-19T10:09:01;18.60;99.90
1994;DHT22;998;49.906;10.908;2023-09-19T10:11:41;18.60;99.90
1994;DHT22;998;49.906;10.908;2023-09-19T10:14:11;18.70;99.90
1994;DHT22;998;49.906;10.908;2023-09-19T10:16:45;18.70;99.90
1994;DHT22;998;49.906;10.908;2023-09-19T10:19:16;18.90;99.90
1994;DHT22;998;49.906;10.908;2023-09-19T10:21:51;19.00;99.90
1994;DHT22;998;49.906;10.908;2023-09-19T10:24:22;19.10;99.90
1994;DHT22;998;49.906;10.908;2023-09-19T10:26:53;19.20;99.90
1994;DHT22;998;49.906;10.908;2023-09-19T10:29:21;19.40;99.90
1994;DHT22;998;49.906;10.908;2023-09-19T10:31:49;19.50;99.90
1994;DHT22;998;49.906;10.908;2023-09-19T10:34:19;19.60;99.90
1994;DHT22;998;49.906;10.908;2023-09-19T10:36:48;19.60;99.90
1994;DHT22;998;49.906;10.908;2023-09-19T10:39:18;19.70;99.90
1994;DHT22;998;49.906;10.908;2023-09-19T10:41:52;19.80;99.90
1994;DHT22;998;49.906;10.908;2023-09-19T10:44:23;19.90;99.90
1994;DHT22;998;49.906;10.908;2023-09-19T10:46:51;19.90;99.90
1994;DHT22;998;49.906;10.908;2023-09-19T10:49:19;20.00;99.90
1994;DHT22;998;49.906;10.908;2023-09-19T10:51:49;20.00;99.90
1994;DHT22;998;49.906;10.908;2023-09-19T10:54:18;20.10;99.90
1994;DHT22;998;49.906;10.908;2023-09-19T10:56:51;20.20;99.90
1994;DHT22;998;49.906;10.908;2023-09-19T10:59:21;20.20;99.90
1994;DHT22;998;49.906;10.908;2023-09-19T11:01:51;20.20;99.90
1994;DHT22;998;49.906;10.908;2023-09-19T11:04:24;20.30;99.90
1994;DHT22;998;49.906;10.908;2023-09-19T11:07:05;20.30;99.90
1994;DHT22;998;49.906;10.908;2023-09-19T11:09:46;20.50;99.90
1994;DHT22;998;49.906;10.908;2023-09-19T11:18:56;21.00;99.90
1994;DHT22;998;49.906;10.908;2023-09-19T11:21:52;21.40;99.90
1994;DHT22;998;49.906;10.908;2023-09-19T11:24:29;21.30;99.90
1994;DHT22;998;49.906;10.908;2023-09-19T11:27:15;21.20;99.90
1994;DHT22;998;49.906;10.908;2023-09-19T11:29:46;21.70;99.90
1994;DHT22;998;49.906;10.908;2023-09-19T11:32:16;22.30;99.90
1994;DHT22;998;49.906;10.908;2023-09-19T11:34:48;22.70;99.90
1994;DHT22;998;49.906;10.908;2023-09-19T11:40:36;23.30;99.90
1994;DHT22;998;49.906;10.908;2023-09-19T11:43:30;23.50;99.90
1994;DHT22;998;49.906;10.908;2023-09-19T11:46:09;23.70;99.90
1994;DHT22;998;49.906;10.908;2023-09-19T11:48:40;23.90;99.90
1994;DHT22;998;49.906;10.908;2023-09-19T11:51:18;23.50;99.90
1994;DHT22;998;49.906;10.908;2023-09-19T11:53:48;23.60;99.90
1994;DHT22;998;49.906;10.908;2023-09-19T11:56:19;23.50;99.90
1994;DHT22;998;49.906;10.908;2023-09-19T11:58:49;23.40;99.90
1994;DHT22;998;49.906;10.908;2023-09-19T12:01:22;23.60;99.90
1994;DHT22;998;49.906;10.908;2023-09-19T12:03:54;23.60;99.90
1994;DHT22;998;49.906;10.908;2023-09-19T12:06:24;23.80;99.90
1994;DHT22;998;49.906;10.908;2023-09-19T12:08:53;23.50;99.90
1994;DHT22;998;49.906;10.908;2023-09-19T12:11:22;23.40;99.90
1994;DHT22;998;49.906;10.908;2023-09-19T12:13:50;23.50;99.90
1994;DHT22;998;49.906;10.908;2023-09-19T12:16:19;23.60;99.90
1994;DHT22;998;49.906;10.908;2023-09-19T12:18:49;23.50;99.90
1994;DHT22;998;49.906;10.908;2023-09-19T12:21:28;23.20;99.90
1994;DHT22;998;49.906;10.908;2023-09-19T12:24:09;22.50;99.90
1994;DHT22;998;49.906;10.908;2023-09-19T12:26:43;22.90;99.90
1994;DHT22;998;49.906;10.908;2023-09-19T12:29:15;23.30;99.90
1994;DHT22;998;49.906;10.908;2023-09-19T12:31:51;23.60;99.90
1994;DHT22;998;49.906;10.908;2023-09-19T12:34:22;23.80;99.90
1994;DHT22;998;49.906;10.908;2023-09-19T12:37:05;23.80;99.90
1994;DHT22;998;49.906;10.908;2023-09-19T12:39:38;24.20;99.00
1994;DHT22;998;49.906;10.908;2023-09-19T12:42:08;24.50;98.00
1994;DHT22;998;49.906;10.908;2023-09-19T12:44:37;24.40;98.50
1994;DHT22;998;49.906;10.908;2023-09-19T12:47:12;24.30;96.80
1994;DHT22;998;49.906;10.908;2023-09-19T12:50:09;24.30;96.70
1994;DHT22;998;49.906;10.908;2023-09-19T12:52:46;24.30;96.30
1994;DHT22;998;49.906;10.908;2023-09-19T12:55:22;24.00;96.00
1994;DHT22;998;49.906;10.908;2023-09-19T12:58:03;23.80;96.70
1994;DHT22;998;49.906;10.908;2023-09-19T13:00:36;23.90;96.90
1994;DHT22;998;49.906;10.908;2023-09-19T13:03:14;23.80;96.80
1994;DHT22;998;49.906;10.908;2023-09-19T13:05:51;23.80;96.40
1994;DHT22;998;49.906;10.908;2023-09-19T13:08:25;24.10;95.00
1994;DHT22;998;49.906;10.908;2023-09-19T13:11:02;24.30;95.10
1994;DHT22;998;49.906;10.908;2023-09-19T13:13:32;24.70;95.00
1994;DHT22;998;49.906;10.908;2023-09-19T13:16:02;24.90;93.50
1994;DHT22;998;49.906;10.908;2023-09-19T13:18:30;24.80;93.70
1994;DHT22;998;49.906;10.908;2023-09-19T13:21:08;24.50;93.80
1994;DHT22;998;49.906;10.908;2023-09-19T13:23:39;24.70;93.90
1994;DHT22;998;49.906;10.908;2023-09-19T13:26:08;24.90;93.70
1994;DHT22;998;49.906;10.908;2023-09-19T13:28:37;24.90;93.40
1994;DHT22;998;49.906;10.908;2023-09-19T13:31:05;24.40;94.00
1994;DHT22;998;49.906;10.908;2023-09-19T13:33:34;24.60;94.20
1994;DHT22;998;49.906;10.908;2023-09-19T13:36:02;24.50;94.00
1994;DHT22;998;49.906;10.908;2023-09-19T13:38:30;24.70;92.80
1994;DHT22;998;49.906;10.908;2023-09-19T13:40:59;24.60;92.60
1994;DHT22;998;49.906;10.908;2023-09-19T13:43:27;24.50;92.20
1994;DHT22;998;49.906;10.908;2023-09-19T13:45:54;24.60;93.00
1994;DHT22;998;49.906;10.908;2023-09-19T13:48:23;24.80;92.30
1994;DHT22;998;49.906;10.908;2023-09-19T13:50:51;24.90;91.70
1994;DHT22;998;49.906;10.908;2023-09-19T13:53:18;25.10;91.80
1994;DHT22;998;49.906;10.908;2023-09-19T13:55:46;25.10;90.60
1994;DHT22;998;49.906;10.908;2023-09-19T13:58:15;24.80;90.70
1994;DHT22;998;49.906;10.908;2023-09-19T14:00:43;24.30;90.40
1994;DHT22;998;49.906;10.908;2023-09-19T14:03:10;24.30;90.90
1994;DHT22;998;49.906;10.908;2023-09-19T14:05:37;24.50;91.10
1994;DHT22;998;49.906;10.908;2023-09-19T14:08:05;24.60;91.10
1994;DHT22;998;49.906;10.908;2023-09-19T14:10:32;24.40;90.80
1994;DHT22;998;49.906;10.908;2023-09-19T14:13:00;24.60;90.20
1994;DHT22;998;49.906;10.908;2023-09-19T14:15:28;24.50;90.90
1994;DHT22;998;49.906;10.908;2023-09-19T14:17:58;24.60;91.40
1994;DHT22;998;49.906;10.908;2023-09-19T14:20:26;24.80;91.30
1994;DHT22;998;49.906;10.908;2023-09-19T14:22:53;24.80;90.60
1994;DHT22;998;49.906;10.908;2023-09-19T14:25:20;24.50;91.10
1994;DHT22;998;49.906;10.908;2023-09-19T14:27:48;24.40;90.90
1994;DHT22;998;49.906;10.908;2023-09-19T14:30:15;24.30;91.10
1994;DHT22;998;49.906;10.908;2023-09-19T14:32:44;24.30;91.40
1994;DHT22;998;49.906;10.908;2023-09-19T14:35:11;24.30;90.90
1994;DHT22;998;49.906;10.908;2023-09-19T14:37:39;24.20;90.70
1994;DHT22;998;49.906;10.908;2023-09-19T14:40:08;24.10;91.20
1994;DHT22;998;49.906;10.908;2023-09-19T14:42:38;24.30;94.40
1994;DHT22;998;49.906;10.908;2023-09-19T14:45:06;24.30;89.50
1994;DHT22;998;49.906;10.908;2023-09-19T14:47:35;24.20;88.70
1994;DHT22;998;49.906;10.908;2023-09-19T14:50:05;24.10;90.00
1994;DHT22;998;49.906;10.908;2023-09-19T14:52:33;24.20;89.50
1994;DHT22;998;49.906;10.908;2023-09-19T14:55:02;24.00;89.70
1994;DHT22;998;49.906;10.908;2023-09-19T14:57:30;24.00;90.10
1994;DHT22;998;49.906;10.908;2023-09-19T14:59:57;23.90;90.60
1994;DHT22;998;49.906;10.908;2023-09-19T15:02:25;23.90;90.70
1994;DHT22;998;49.906;10.908;2023-09-19T15:04:53;23.70;90.70
1994;DHT22;998;49.906;10.908;2023-09-19T15:07:22;23.80;90.70
1994;DHT22;998;49.906;10.908;2023-09-19T15:09:49;23.80;90.50
1994;DHT22;998;49.906;10.908;2023-09-19T15:12:16;23.80;90.90
1994;DHT22;998;49.906;10.908;2023-09-19T15:14:44;23.70;91.00
1994;DHT22;998;49.906;10.908;2023-09-19T15:17:11;23.40;91.60
1994;DHT22;998;49.906;10.908;2023-09-19T15:19:38;23.30;92.10
1994;DHT22;998;49.906;10.908;2023-09-19T15:22:06;23.20;92.40
1994;DHT22;998;49.906;10.908;2023-09-19T15:24:35;23.00;92.60
1994;DHT22;998;49.906;10.908;2023-09-19T15:27:02;23.00;92.90
1994;DHT22;998;49.906;10.908;2023-09-19T15:29:30;23.00;92.90
1994;DHT22;998;49.906;10.908;2023-09-19T15:31:57;23.10;93.60
1994;DHT22;998;49.906;10.908;2023-09-19T15:34:27;23.10;93.20
1994;DHT22;998;49.906;10.908;2023-09-19T15:36:55;23.10;93.10
1994;DHT22;998;49.906;10.908;2023-09-19T15:39:23;23.10;93.60
1994;DHT22;998;49.906;10.908;2023-09-19T15:41:52;23.10;92.90
1994;DHT22;998;49.906;10.908;2023-09-19T15:44:19;22.90;93.70
1994;DHT22;998;49.906;10.908;2023-09-19T15:46:47;22.90;94.10
1994;DHT22;998;49.906;10.908;2023-09-19T15:49:14;22.90;94.30
1994;DHT22;998;49.906;10.908;2023-09-19T15:51:42;22.90;93.80
1994;DHT22;998;49.906;10.908;2023-09-19T15:54:11;22.80;94.00
1994;DHT22;998;49.906;10.908;2023-09-19T15:56:40;22.70;94.30
1994;DHT22;998;49.906;10.908;2023-09-19T15:59:09;22.70;94.60
1994;DHT22;998;49.906;10.908;2023-09-19T16:01:38;22.70;94.30
1994;DHT22;998;49.906;10.908;2023-09-19T16:04:06;22.70;94.50
1994;DHT22;998;49.906;10.908;2023-09-19T16:06:36;22.60;95.00
1994;DHT22;998;49.906;10.908;2023-09-19T16:09:04;22.50;95.60
1994;DHT22;998;49.906;10.908;2023-09-19T16:11:33;22.50;95.70
1994;DHT22;998;49.906;10.908;2023-09-19T16:14:01;22.60;95.20
1994;DHT22;998;49.906;10.908;2023-09-19T16:16:30;22.80;94.80
1994;DHT22;998;49.906;10.908;2023-09-19T16:18:59;22.70;95.60
1994;DHT22;998;49.906;10.908;2023-09-19T16:21:29;22.70;95.50
1994;DHT22;998;49.906;10.908;2023-09-19T16:23:58;22.70;95.70
1994;DHT22;998;49.906;10.908;2023-09-19T16:26:27;22.80;95.50
1994;DHT22;998;49.906;10.908;2023-09-19T16:28:56;22.80;94.90
1994;DHT22;998;49.906;10.908;2023-09-19T16:31:26;22.80;94.90
1994;DHT22;998;49.906;10.908;2023-09-19T16:33:56;22.70;95.00